Stations météo

réclame
Mon MeteoGroup
Formigueres, France (7737): Température de l'air & dewpoint: 18.05.2019 05:00:00 - 24.05.2019 05:00:00 (CEST)Formigueres, France (7737): Vitesse du vent & gusts: 18.05.2019 05:00:00 - 24.05.2019 05:00:00 (CEST)Formigueres, France (7737): Direction du vent: 18.05.2019 05:00:00 - 24.05.2019 05:00:00 (CEST)Formigueres, France (7737): Quantités de précipitations: 18.05.2019 05:00:00 - 24.05.2019 05:00:00 (CEST)
Date & Time tt [°C] td [°C] ff [km/h] ff [knt] fx [km/h] fx [knt] dd rr [mm]
24.05.2019 05:00:00 7,3 6,9 4 2 13 7 S 0,0
24.05.2019 04:00:00 7,2 6,8 4 2 11 6 NW 0,0
24.05.2019 03:00:00 7,8 7,2 8 4 16 9 E 1,0
24.05.2019 02:00:00 7,9 7,1 9 5 18 10 SSW -
24.05.2019 01:00:00 8,3 7,4 4 2 21 11 SW 2,0
24.05.2019 00:00:00 9,2 6,1 9 5 28 15 NW 0,8
23.05.2019 23:00:00 11,0 4,4 11 6 18 10 NNW 0,0
23.05.2019 22:00:00 11,2 4,2 11 6 21 11 N 0,0
23.05.2019 21:00:00 11,4 4,8 8 4 21 11 NNE 0,0
23.05.2019 20:00:00 12,8 5,0 13 7 28 15 NNE -
23.05.2019 19:00:00 13,9 5,5 16 9 31 17 NNE 0,0
23.05.2019 18:00:00 15,6 5,5 21 11 39 21 NNE 0,0
23.05.2019 17:00:00 16,7 5,6 22 12 42 23 N 0,0
23.05.2019 16:00:00 18,1 6,3 24 13 41 22 N 0,0
23.05.2019 15:00:00 18,6 4,7 18 10 39 21 NNE 0,0
23.05.2019 14:00:00 18,5 4,6 18 10 44 24 NNE -
23.05.2019 13:00:00 18,1 2,8 13 7 29 16 NNE 0,0
23.05.2019 12:00:00 17,6 1,9 11 6 26 14 NNE 0,0
23.05.2019 11:00:00 16,3 1,9 13 7 24 13 NNE 0,0
23.05.2019 10:00:00 15,0 0,0 9 5 18 10 E 0,0
23.05.2019 09:00:00 11,5 4,2 4 2 9 5 NNE 0,0
23.05.2019 08:00:00 7,7 3,0 4 2 24 13 N -
23.05.2019 07:00:00 3,2 0,4 16 9 26 14 W 0,0
23.05.2019 06:00:00 3,2 0,8 15 8 22 12 WSW 0,0
23.05.2019 05:00:00 3,5 1,4 11 6 18 10 WSW 0,0
23.05.2019 04:00:00 3,7 1,7 11 6 22 12 WSW 0,0
23.05.2019 03:00:00 4,2 2,2 11 6 18 10 WSW 0,0
23.05.2019 02:00:00 4,9 3,1 11 6 18 10 WSW -
23.05.2019 01:00:00 5,8 3,6 11 6 16 9 WSW 0,0
23.05.2019 00:00:00 6,2 3,7 9 5 22 12 WSW 0,0
22.05.2019 23:00:00 6,8 4,1 11 6 18 10 W 0,0
22.05.2019 22:00:00 8,3 4,7 2 1 15 8 SW 0,0
22.05.2019 21:00:00 10,1 5,3 8 4 18 10 N 0,0
22.05.2019 20:00:00 10,8 5,1 16 9 34 18 N -
22.05.2019 19:00:00 12,8 6,2 18 10 37 20 NNE 0,0
22.05.2019 18:00:00 14,0 6,6 22 12 41 22 NNE 0,0
22.05.2019 17:00:00 14,6 6,4 24 13 44 24 N 0,0
22.05.2019 16:00:00 14,6 6,2 18 10 37 20 NNE 0,0
22.05.2019 15:00:00 15,4 5,9 18 10 39 21 NNE 0,0
22.05.2019 14:00:00 14,6 5,9 18 10 44 24 NNE -
22.05.2019 13:00:00 14,6 6,2 18 10 39 21 N 0,0
22.05.2019 12:00:00 13,5 4,1 16 9 35 19 NNE 0,0
22.05.2019 11:00:00 12,9 4,6 16 9 34 18 NNE 0,0
22.05.2019 10:00:00 10,8 4,0 13 7 26 14 NNE 0,0
22.05.2019 09:00:00 7,5 4,1 4 2 11 6 ENE 0,0
22.05.2019 08:00:00 5,2 2,9 2 1 15 8 ESE -
22.05.2019 07:00:00 0,6 -0,9 11 6 16 9 WSW 0,0
22.05.2019 06:00:00 0,8 -0,4 9 5 15 8 W 0,0
22.05.2019 05:00:00 0,8 -0,5 9 5 21 11 WSW 0,0
22.05.2019 04:00:00 1,0 -0,2 8 4 15 8 SW 0,0
22.05.2019 03:00:00 2,4 1,1 9 5 18 10 W 0,0
22.05.2019 02:00:00 3,3 2,7 4 2 18 10 WSW -
22.05.2019 01:00:00 5,2 3,7 9 5 26 14 NNW 0,0
22.05.2019 00:00:00 6,1 5,1 16 9 34 18 N 0,0
21.05.2019 23:00:00 5,8 4,6 15 8 26 14 N 0,0
21.05.2019 22:00:00 5,9 4,7 15 8 22 12 N 0,0
21.05.2019 21:00:00 7,0 4,8 15 8 22 12 NNW 0,0
21.05.2019 20:00:00 7,7 4,8 9 5 35 19 N -
21.05.2019 19:00:00 8,5 4,9 18 10 46 25 NNE 0,0
21.05.2019 18:00:00 8,1 4,5 22 12 48 26 NNE 0,0
21.05.2019 17:00:00 9,8 5,8 26 14 50 27 N 0,0
21.05.2019 16:00:00 10,3 5,3 28 15 46 25 N 0,0
21.05.2019 15:00:00 10,9 5,4 26 14 52 28 NNE 0,0
21.05.2019 14:00:00 11,2 5,3 24 13 48 26 NNE -
21.05.2019 13:00:00 11,3 5,0 26 14 44 24 NNE 0,0
21.05.2019 12:00:00 11,4 3,4 21 11 42 23 NNE 0,0
21.05.2019 11:00:00 9,5 2,6 18 10 34 18 NNE 0,0
21.05.2019 10:00:00 9,0 2,8 18 10 29 16 NNE 0,0
21.05.2019 09:00:00 7,5 2,8 4 2 11 6 SE 0,0
21.05.2019 08:00:00 4,2 2,2 4 2 13 7 SE -
21.05.2019 07:00:00 0,8 -0,2 5 3 11 6 WSW 0,0
21.05.2019 06:00:00 1,2 0,2 5 3 11 6 WSW 0,0
21.05.2019 05:00:00 1,3 0,4 4 2 18 10 N 0,0
21.05.2019 04:00:00 1,8 0,6 5 3 16 9 WNW 0,0
21.05.2019 03:00:00 2,2 1,2 8 4 15 8 SW 0,0
21.05.2019 02:00:00 3,0 1,7 9 5 15 8 WSW -
21.05.2019 01:00:00 3,5 2,2 4 2 16 9 S 0,0
21.05.2019 00:00:00 4,2 1,6 9 5 18 10 NNW 0,0
20.05.2019 23:00:00 5,1 1,6 8 4 28 15 N 0,0
20.05.2019 22:00:00 5,0 2,9 4 2 26 14 NW 0,0
20.05.2019 21:00:00 5,2 3,4 16 9 28 15 NNE 0,0
20.05.2019 20:00:00 5,7 3,7 16 9 31 17 NNE -
20.05.2019 19:00:00 5,5 3,3 16 9 37 20 N 0,0
20.05.2019 18:00:00 6,4 3,0 21 11 46 25 NNE 0,0
20.05.2019 17:00:00 7,5 3,0 26 14 50 27 NNE 0,0
20.05.2019 16:00:00 10,0 3,7 28 15 50 27 NNE 0,0
20.05.2019 15:00:00 10,0 3,3 29 16 52 28 NNE 0,0
20.05.2019 14:00:00 10,6 4,3 26 14 46 25 NNE -
20.05.2019 13:00:00 9,4 3,1 28 15 50 27 NNE 0,0
20.05.2019 12:00:00 7,8 2,9 24 13 50 27 NNE 0,0
20.05.2019 11:00:00 8,2 2,0 24 13 50 27 NNE 0,0
20.05.2019 10:00:00 7,5 1,8 26 14 52 28 NNE 0,0
20.05.2019 09:00:00 6,7 1,2 22 12 41 22 NNE 0,0
20.05.2019 08:00:00 4,7 1,2 22 12 35 19 NNE -
20.05.2019 07:00:00 2,5 0,2 18 10 39 21 N 0,0
20.05.2019 06:00:00 3,3 -0,5 16 9 35 19 NNW 0,0
20.05.2019 05:00:00 2,6 0,5 15 8 35 19 N 0,0
20.05.2019 04:00:00 2,7 0,8 18 10 34 18 NNE 0,0
20.05.2019 03:00:00 2,9 0,8 16 9 39 21 N 0,0
20.05.2019 02:00:00 3,0 1,2 22 12 41 22 NNE -
20.05.2019 01:00:00 3,3 1,8 24 13 42 23 N 0,0
20.05.2019 00:00:00 3,4 1,6 13 7 35 19 NNW 0,0
19.05.2019 23:00:00 3,3 2,0 24 13 41 22 NNE 0,0
19.05.2019 22:00:00 3,5 1,9 16 9 35 19 N 0,0
19.05.2019 21:00:00 3,8 2,0 15 8 41 22 N 0,0
19.05.2019 20:00:00 4,6 2,3 22 12 44 24 NNE -
19.05.2019 19:00:00 5,3 2,5 21 11 48 26 NNE 0,0
19.05.2019 18:00:00 6,2 1,9 15 8 54 29 N 0,0
19.05.2019 17:00:00 6,3 1,6 29 16 57 31 N 0,0
19.05.2019 16:00:00 7,3 2,2 26 14 50 27 NNE 0,0
19.05.2019 15:00:00 5,3 1,8 24 13 46 25 NNE 0,0
19.05.2019 14:00:00 5,6 2,2 24 13 50 27 NNE -
19.05.2019 13:00:00 4,8 2,3 26 14 48 26 NNE 0,0
19.05.2019 12:00:00 6,0 1,5 24 13 48 26 NNE 0,0
19.05.2019 11:00:00 4,5 1,3 16 9 42 23 NNW 0,0
19.05.2019 10:00:00 4,1 1,6 21 11 41 22 NNE 0,0
19.05.2019 09:00:00 4,3 1,3 16 9 29 16 NNE 0,0
19.05.2019 08:00:00 0,7 -0,2 4 2 9 5 ENE -
19.05.2019 07:00:00 -2,2 -2,5 2 1 11 6 SSE 0,0
19.05.2019 06:00:00 -2,0 -2,3 2 1 5 3 NW 0,0
19.05.2019 05:00:00 -2,8 -3,2 0 0 4 2 N 0,0
19.05.2019 04:00:00 -1,7 -2,0 4 2 8 4 SSW 0,0
19.05.2019 03:00:00 -1,2 -1,8 4 2 11 6 NNE 0,0
19.05.2019 02:00:00 -0,6 -1,2 4 2 11 6 WSW -
19.05.2019 01:00:00 0,3 -0,7 2 1 18 10 NE 0,0
19.05.2019 00:00:00 1,2 -0,3 9 5 26 14 N 0,0
18.05.2019 23:00:00 1,8 0,2 13 7 22 12 NNW 0,0
18.05.2019 22:00:00 2,0 0,1 13 7 22 12 N 0,0
18.05.2019 21:00:00 2,3 1,0 8 4 24 13 NNW 0,0
18.05.2019 20:00:00 2,6 1,6 9 5 24 13 NNW -
18.05.2019 19:00:00 2,6 1,7 11 6 26 14 N 0,2
18.05.2019 18:00:00 2,1 1,5 13 7 28 15 N 0,6
18.05.2019 17:00:00 2,8 1,9 11 6 26 14 N 0,4
18.05.2019 16:00:00 2,1 1,4 13 7 28 15 NNE 2,0
18.05.2019 15:00:00 3,3 2,0 13 7 41 22 NNE 0,6
18.05.2019 14:00:00 5,1 1,9 26 14 39 21 N -
18.05.2019 13:00:00 5,2 1,9 18 10 37 20 NNE 0,0
18.05.2019 12:00:00 5,4 1,3 21 11 37 20 NNE 0,0
18.05.2019 11:00:00 6,2 1,7 21 11 35 19 NNE 0,0
18.05.2019 10:00:00 7,4 2,3 18 10 31 17 NNE 0,0
18.05.2019 09:00:00 5,1 0,5 18 10 31 17 NNE 0,0
18.05.2019 08:00:00 2,5 -0,3 16 9 29 16 N -
18.05.2019 07:00:00 2,0 -0,3 13 7 29 16 N 0,0
18.05.2019 06:00:00 1,9 -0,2 16 9 31 17 N 0,0
18.05.2019 05:00:00 2,4 -0,5 13 7 29 16 NNW 0,0

tt = Température de l'air
td = dewpoint
ff = Vitesse du vent
fx = gusts
dd = Direction du vent
rr = Quantités de précipitations

stations d'obs. à proximité